Stephenville Crossing, Canada
Current Conditions -  °F | °C
As of 1:22 PM on Thursday 27 Nov 2014 (Local Time) from CYJT Reporting Station
Rain Showers Rain Showers  
Wind Chill: 28°   Ceiling: 1200
Heat Index: 36°   Visibility: 4mi
Dew Point: 32°   Wind: 12mph
Humidity: 87%   Direction: 40°NE
Pressure: 29.39"   Gusts: 17mph
Location:  48.52°N, 58.42°W
Report Text: CYJT 271622Z 04010G15KT 4SM -SHRA OVC012 02/00 A2939 RMK SC8 SLP954
Loading
Personal Weather Stations






























Interactive Weather Map New forecast layout! Learn more

10-Day Weather Forecast

Advertisements
Track Severe Weather on mobile